MSC Vanessa — HOWD — position and weather

sailwx.info

Track history (hours):
 
Tides and Currents Weather Stations Pressure Air Temp Water Temp Dewpoint Dewpoint Depression Visibility Wind Speed Wind Dir Waves Ship Positions

MSC Vanessa

Last reported at 2017-Mar-20 10:09 UTC. Time now 2017-Mar-23 20:19 UTC.
Position N 31°56' W 080°16'.

Length 300 m; draft 11 m.

Type: Cargo ship. MMSI: 356946000.

Date/timePositionNaut miles runAvg speedWind from/ knotsBaromVisibWave heightAir tempDewpointWater temp
2017-Mar-20 10:09N 31°56' W 080°16'6 9.5
2017-Mar-20 09:33N 31°56' W 080°22'10 9.8
2017-Mar-20 08:33N 31°56' W 080°34'9 9.2
2017-Mar-20 07:33N 31°58' W 080°44'1211.7
2017-Mar-20 06:33N 32°03' W 080°57'8 7.9
2017-Mar-20 05:33N 32°05' W 081°06'3 3.4
2017-Mar-20 04:33N 32°08' W 081°08'0 0.0
2017-Mar-20 03:33N 32°08' W 081°08'0 0.0
2017-Mar-20 02:27N 32°08' W 081°08'0 0.0
2017-Mar-20 01:33N 32°08' W 081°08'0 0.0
2017-Mar-20 00:33N 32°08' W 081°08'0 0.0
2017-Mar-19 23:33N 32°08' W 081°08'0 0.0
2017-Mar-19 22:33N 32°08' W 081°08'0 0.0
2017-Mar-19 21:33N 32°08' W 081°08'0 0.0
2017-Mar-19 20:33N 32°08' W 081°08'0 0.0
2017-Mar-19 19:33N 32°08' W 081°08'0 0.0
2017-Mar-19 18:33N 32°08' W 081°08'0 0.0
2017-Mar-19 17:33N 32°08' W 081°08'0 0.0
2017-Mar-19 16:33N 32°08' W 081°08'0 0.0
2017-Mar-19 15:21N 32°08' W 081°08'0 0.0
2017-Mar-19 14:33N 32°08' W 081°08'0 0.0
2017-Mar-19 13:33N 32°08' W 081°08'0 0.0
2017-Mar-19 12:33N 32°08' W 081°08'0 0.0
2017-Mar-19 11:27N 32°08' W 081°08'0 0.0
2017-Mar-19 10:33N 32°08' W 081°08'0 0.0
2017-Mar-19 09:33N 32°08' W 081°08'0 0.0
2017-Mar-19 08:33N 32°08' W 081°08'0 0.0
2017-Mar-19 07:33N 32°08' W 081°08'0 0.0
2017-Mar-19 06:33N 32°08' W 081°08'0 0.0
2017-Mar-19 05:33N 32°08' W 081°08'0 0.0
2017-Mar-19 04:33N 32°08' W 081°08'0 0.0
2017-Mar-19 03:33N 32°08' W 081°08'0 0.0
2017-Mar-19 02:33N 32°08' W 081°08'0 0.0
2017-Mar-19 01:33N 32°08' W 081°08'0 0.0
2017-Mar-19 00:33N 32°08' W 081°08'2 2.0
2017-Mar-18 23:33N 32°06' W 081°07'6 6.1
2017-Mar-18 22:33N 32°06' W 080°60'1110.9
2017-Mar-18 21:33N 32°01' W 080°48'1111.0
2017-Mar-18 20:33N 31°57' W 080°36'10 9.5
2017-Mar-18 19:33N 31°59' W 080°25'1111.1
2017-Mar-18 18:33N 31°59' W 080°12'366 7.5
2017-Mar-16 17:32N 36°48' W 075°39'9 9.3
2017-Mar-16 16:32N 36°51' W 075°50'10 9.5
2017-Mar-16 15:31N 36°57' W 075°60'1212.9
2017-Mar-16 14:33N 37°07' W 076°08'9317.6
2017-Mar-16 09:17N 38°39' W 076°25'1418.8
2017-Mar-16 08:33N 38°53' W 076°24'1616.0
2017-Mar-16 07:33N 39°09' W 076°25'9 9.4
2017-Mar-16 06:33N 39°15' W 076°34'1 0.6
2017-Mar-16 05:32N 39°15' W 076°33'0 0.0
2017-Mar-16 04:32N 39°15' W 076°33'0 0.0
2017-Mar-16 03:29N 39°15' W 076°33'0 0.0
2017-Mar-16 02:32N 39°15' W 076°33'0 0.0
2017-Mar-16 01:32N 39°15' W 076°33'0 0.0
2017-Mar-16 00:32N 39°15' W 076°33'0 0.0
2017-Mar-15 23:32N 39°15' W 076°33'0 0.0
2017-Mar-15 22:32N 39°15' W 076°33'0 0.0
2017-Mar-15 21:32N 39°15' W 076°33'0 0.0
2017-Mar-15 20:32N 39°15' W 076°33'0 0.0
2017-Mar-15 19:32N 39°15' W 076°33'0 0.0
2017-Mar-15 18:32N 39°15' W 076°33'0 0.0
2017-Mar-15 17:32N 39°15' W 076°33'0 0.0
2017-Mar-15 16:32N 39°15' W 076°33'0 0.0
2017-Mar-15 15:32N 39°15' W 076°33'0 0.0
2017-Mar-15 14:32N 39°15' W 076°33'0 0.0
2017-Mar-15 13:32N 39°15' W 076°33'0 0.0
2017-Mar-15 12:32N 39°15' W 076°33'0 0.0
2017-Mar-15 11:32N 39°15' W 076°33'0 0.0
2017-Mar-15 10:32N 39°15' W 076°33'0 0.0
2017-Mar-15 09:33N 39°15' W 076°33'5 5.3
2017-Mar-15 08:33N 39°11' W 076°28'1312.8
2017-Mar-15 07:34N 38°59' W 076°23'1716.9
2017-Mar-15 06:33N 38°42' W 076°26'3617.5
2017-Mar-15 04:29N 38°07' W 076°13'6416.4
2017-Mar-15 00:34N 37°03' W 076°05'1212.1
2017-Mar-14 23:33N 36°55' W 075°54'9 7.9
2017-Mar-14 22:28N 36°50' W 075°46'191 8.6
2017-Mar-14 00:13N 39°39' W 073°52'7 9.0
2017-Mar-13 23:28N 39°46' W 073°52'2612.5
2017-Mar-13 21:23N 40°12' W 073°50'8 9.8
2017-Mar-13 20:33N 40°20' W 073°49'8 8.5
2017-Mar-13 19:33N 40°28' W 073°52'1111.4
2017-Mar-13 18:34N 40°36' W 074°03'6 5.9
2017-Mar-13 17:33N 40°39' W 074°09'2 2.0
2017-Mar-13 16:32N 40°41' W 074°09'0 0.0
2017-Mar-13 15:32N 40°41' W 074°09'0 0.0
2017-Mar-13 14:32N 40°41' W 074°09'0 0.0
2017-Mar-13 13:32N 40°41' W 074°09'0 0.0
2017-Mar-13 12:32N 40°41' W 074°09'0 0.0
2017-Mar-13 11:32N 40°41' W 074°09'0 0.0
2017-Mar-13 10:29N 40°41' W 074°09'0 0.0
2017-Mar-13 09:32N 40°41' W 074°09'0 0.0
2017-Mar-13 08:32N 40°41' W 074°09'0 0.0
2017-Mar-13 07:32N 40°41' W 074°09'0 0.0
2017-Mar-13 06:32N 40°41' W 074°09'0 0.0
2017-Mar-13 05:32N 40°41' W 074°09'0 0.0
2017-Mar-13 04:32N 40°41' W 074°09'0 0.0
2017-Mar-13 03:29N 40°41' W 074°09'0 0.0
2017-Mar-13 02:32N 40°41' W 074°09'0 0.0
2017-Mar-13 01:32N 40°41' W 074°09'0 0.0
2017-Mar-13 00:32N 40°41' W 074°09'0 0.0
2017-Mar-12 23:29N 40°41' W 074°09'0 0.0
2017-Mar-12 22:32N 40°41' W 074°09'0 0.0
2017-Mar-12 21:29N 40°41' W 074°09'0 0.0
2017-Mar-12 20:32N 40°41' W 074°09'0 0.0
2017-Mar-12 19:32N 40°41' W 074°09'0 0.0
2017-Mar-12 18:32N 40°41' W 074°09'0 0.0
2017-Mar-12 17:32N 40°41' W 074°09'0 0.0
2017-Mar-12 16:32N 40°41' W 074°09'0 0.0
2017-Mar-12 15:32N 40°41' W 074°09'0 0.0
2017-Mar-12 14:32N 40°41' W 074°09'0 0.0
2017-Mar-12 13:32N 40°41' W 074°09'0 0.0
2017-Mar-12 12:32N 40°41' W 074°09'0 0.0
2017-Mar-12 11:32N 40°41' W 074°09'0 0.0
2017-Mar-12 10:32N 40°41' W 074°09'0 0.0
2017-Mar-12 09:32N 40°41' W 074°09'0 0.0
2017-Mar-12 08:32N 40°41' W 074°09'1 1.4
2017-Mar-12 07:33N 40°40' W 074°08'4 3.9
2017-Mar-12 06:33N 40°39' W 074°04'1110.6
2017-Mar-12 05:33N 40°30' W 073°56'8 7.9
2017-Mar-12 04:33N 40°25' W 073°47'7 7.1
2017-Mar-12 03:33N 40°18' W 073°46'3210.4
2017-Mar-12 00:27N 39°46' W 073°40'21010.5
2017-Mar-11 04:30N 36°58' W 076°20'6 5.9
2017-Mar-11 03:33N 36°53' W 076°21'0 0.0
2017-Mar-11 02:32N 36°53' W 076°21'0 0.0
2017-Mar-11 01:29N 36°53' W 076°21'0 0.0
2017-Mar-11 00:29N 36°53' W 076°21'0 0.0
2017-Mar-10 23:32N 36°53' W 076°21'0 0.0
2017-Mar-10 22:32N 36°53' W 076°21'0 0.0
2017-Mar-10 21:32N 36°53' W 076°21'0 0.0
2017-Mar-10 20:32N 36°53' W 076°21'0 0.0
2017-Mar-10 19:32N 36°53' W 076°21'0 0.0
2017-Mar-10 18:32N 36°53' W 076°21'0 0.0
2017-Mar-10 17:32N 36°53' W 076°21'0 0.0
2017-Mar-10 16:33N 36°53' W 076°21'5 4.7
2017-Mar-10 15:33N 36°57' W 076°20'1212.2
2017-Mar-10 14:33N 36°58' W 076°05'1010.0
2017-Mar-10 13:33N 36°54' W 075°53'6 5.8
2017-Mar-10 12:33N 36°51' W 075°48'  
Track history (hours):
 
Tides and Currents Weather Stations Pressure Air Temp Water Temp Dewpoint Dewpoint Depression Visibility Wind Speed Wind Dir Waves Ship Positions

MSC Vanessa

Last reported at 2017-Mar-20 10:09 UTC. Time now 2017-Mar-23 20:19 UTC.
Position N 31°56' W 080°16'.

Length 300 m; draft 11 m.

Type: Cargo ship. MMSI: 356946000.

Date/timePositionNaut miles runAvg speedWind from/ knotsBaromVisibWave heightAir tempDewpointWater temp
2017-Mar-20 10:09N 31°56' W 080°16'6 9.5
2017-Mar-20 09:33N 31°56' W 080°22'10 9.8
2017-Mar-20 08:33N 31°56' W 080°34'9 9.2
2017-Mar-20 07:33N 31°58' W 080°44'1211.7
2017-Mar-20 06:33N 32°03' W 080°57'8 7.9
2017-Mar-20 05:33N 32°05' W 081°06'3 3.4
2017-Mar-20 04:33N 32°08' W 081°08'0 0.0
2017-Mar-20 03:33N 32°08' W 081°08'0 0.0
2017-Mar-20 02:27N 32°08' W 081°08'0 0.0
2017-Mar-20 01:33N 32°08' W 081°08'0 0.0
2017-Mar-20 00:33N 32°08' W 081°08'0 0.0
2017-Mar-19 23:33N 32°08' W 081°08'0 0.0
2017-Mar-19 22:33N 32°08' W 081°08'0 0.0
2017-Mar-19 21:33N 32°08' W 081°08'0 0.0
2017-Mar-19 20:33N 32°08' W 081°08'0 0.0
2017-Mar-19 19:33N 32°08' W 081°08'0 0.0
2017-Mar-19 18:33N 32°08' W 081°08'0 0.0
2017-Mar-19 17:33N 32°08' W 081°08'0 0.0
2017-Mar-19 16:33N 32°08' W 081°08'0 0.0
2017-Mar-19 15:21N 32°08' W 081°08'0 0.0
2017-Mar-19 14:33N 32°08' W 081°08'0 0.0
2017-Mar-19 13:33N 32°08' W 081°08'0 0.0
2017-Mar-19 12:33N 32°08' W 081°08'0 0.0
2017-Mar-19 11:27N 32°08' W 081°08'0 0.0
2017-Mar-19 10:33N 32°08' W 081°08'0 0.0
2017-Mar-19 09:33N 32°08' W 081°08'0 0.0
2017-Mar-19 08:33N 32°08' W 081°08'0 0.0
2017-Mar-19 07:33N 32°08' W 081°08'0 0.0
2017-Mar-19 06:33N 32°08' W 081°08'0 0.0
2017-Mar-19 05:33N 32°08' W 081°08'0 0.0
2017-Mar-19 04:33N 32°08' W 081°08'0 0.0
2017-Mar-19 03:33N 32°08' W 081°08'0 0.0
2017-Mar-19 02:33N 32°08' W 081°08'0 0.0
2017-Mar-19 01:33N 32°08' W 081°08'0 0.0
2017-Mar-19 00:33N 32°08' W 081°08'2 2.0
2017-Mar-18 23:33N 32°06' W 081°07'6 6.1
2017-Mar-18 22:33N 32°06' W 080°60'1110.9
2017-Mar-18 21:33N 32°01' W 080°48'1111.0
2017-Mar-18 20:33N 31°57' W 080°36'10 9.5
2017-Mar-18 19:33N 31°59' W 080°25'1111.1
2017-Mar-18 18:33N 31°59' W 080°12'366 7.5
2017-Mar-16 17:32N 36°48' W 075°39'9 9.3
2017-Mar-16 16:32N 36°51' W 075°50'10 9.5
2017-Mar-16 15:31N 36°57' W 075°60'1212.9
2017-Mar-16 14:33N 37°07' W 076°08'9317.6
2017-Mar-16 09:17N 38°39' W 076°25'1418.8
2017-Mar-16 08:33N 38°53' W 076°24'1616.0
2017-Mar-16 07:33N 39°09' W 076°25'9 9.4
2017-Mar-16 06:33N 39°15' W 076°34'1 0.6
2017-Mar-16 05:32N 39°15' W 076°33'0 0.0
2017-Mar-16 04:32N 39°15' W 076°33'0 0.0
2017-Mar-16 03:29N 39°15' W 076°33'0 0.0
2017-Mar-16 02:32N 39°15' W 076°33'0 0.0
2017-Mar-16 01:32N 39°15' W 076°33'0 0.0
2017-Mar-16 00:32N 39°15' W 076°33'0 0.0
2017-Mar-15 23:32N 39°15' W 076°33'0 0.0
2017-Mar-15 22:32N 39°15' W 076°33'0 0.0
2017-Mar-15 21:32N 39°15' W 076°33'0 0.0
2017-Mar-15 20:32N 39°15' W 076°33'0 0.0
2017-Mar-15 19:32N 39°15' W 076°33'0 0.0
2017-Mar-15 18:32N 39°15' W 076°33'0 0.0
2017-Mar-15 17:32N 39°15' W 076°33'0 0.0
2017-Mar-15 16:32N 39°15' W 076°33'0 0.0
2017-Mar-15 15:32N 39°15' W 076°33'0 0.0
2017-Mar-15 14:32N 39°15' W 076°33'0 0.0
2017-Mar-15 13:32N 39°15' W 076°33'0 0.0
2017-Mar-15 12:32N 39°15' W 076°33'0 0.0
2017-Mar-15 11:32N 39°15' W 076°33'0 0.0
2017-Mar-15 10:32N 39°15' W 076°33'0 0.0
2017-Mar-15 09:33N 39°15' W 076°33'5 5.3
2017-Mar-15 08:33N 39°11' W 076°28'1312.8
2017-Mar-15 07:34N 38°59' W 076°23'1716.9
2017-Mar-15 06:33N 38°42' W 076°26'3617.5
2017-Mar-15 04:29N 38°07' W 076°13'6416.4
2017-Mar-15 00:34N 37°03' W 076°05'1212.1
2017-Mar-14 23:33N 36°55' W 075°54'9 7.9
2017-Mar-14 22:28N 36°50' W 075°46'191 8.6
2017-Mar-14 00:13N 39°39' W 073°52'7 9.0
2017-Mar-13 23:28N 39°46' W 073°52'2612.5
2017-Mar-13 21:23N 40°12' W 073°50'8 9.8
2017-Mar-13 20:33N 40°20' W 073°49'8 8.5
2017-Mar-13 19:33N 40°28' W 073°52'1111.4
2017-Mar-13 18:34N 40°36' W 074°03'6 5.9
2017-Mar-13 17:33N 40°39' W 074°09'2 2.0
2017-Mar-13 16:32N 40°41' W 074°09'0 0.0
2017-Mar-13 15:32N 40°41' W 074°09'0 0.0
2017-Mar-13 14:32N 40°41' W 074°09'0 0.0
2017-Mar-13 13:32N 40°41' W 074°09'0 0.0
2017-Mar-13 12:32N 40°41' W 074°09'0 0.0
2017-Mar-13 11:32N 40°41' W 074°09'0 0.0
2017-Mar-13 10:29N 40°41' W 074°09'0 0.0
2017-Mar-13 09:32N 40°41' W 074°09'0 0.0
2017-Mar-13 08:32N 40°41' W 074°09'0 0.0
2017-Mar-13 07:32N 40°41' W 074°09'0 0.0
2017-Mar-13 06:32N 40°41' W 074°09'0 0.0
2017-Mar-13 05:32N 40°41' W 074°09'0 0.0
2017-Mar-13 04:32N 40°41' W 074°09'0 0.0
2017-Mar-13 03:29N 40°41' W 074°09'0 0.0
2017-Mar-13 02:32N 40°41' W 074°09'0 0.0
2017-Mar-13 01:32N 40°41' W 074°09'0 0.0
2017-Mar-13 00:32N 40°41' W 074°09'0 0.0
2017-Mar-12 23:29N 40°41' W 074°09'0 0.0
2017-Mar-12 22:32N 40°41' W 074°09'0 0.0
2017-Mar-12 21:29N 40°41' W 074°09'0 0.0
2017-Mar-12 20:32N 40°41' W 074°09'0 0.0
2017-Mar-12 19:32N 40°41' W 074°09'0 0.0
2017-Mar-12 18:32N 40°41' W 074°09'0 0.0
2017-Mar-12 17:32N 40°41' W 074°09'0 0.0
2017-Mar-12 16:32N 40°41' W 074°09'0 0.0
2017-Mar-12 15:32N 40°41' W 074°09'0 0.0
2017-Mar-12 14:32N 40°41' W 074°09'0 0.0
2017-Mar-12 13:32N 40°41' W 074°09'0 0.0
2017-Mar-12 12:32N 40°41' W 074°09'0 0.0
2017-Mar-12 11:32N 40°41' W 074°09'0 0.0
2017-Mar-12 10:32N 40°41' W 074°09'0 0.0
2017-Mar-12 09:32N 40°41' W 074°09'0 0.0
2017-Mar-12 08:32N 40°41' W 074°09'1 1.4
2017-Mar-12 07:33N 40°40' W 074°08'4 3.9
2017-Mar-12 06:33N 40°39' W 074°04'1110.6
2017-Mar-12 05:33N 40°30' W 073°56'8 7.9
2017-Mar-12 04:33N 40°25' W 073°47'7 7.1
2017-Mar-12 03:33N 40°18' W 073°46'3210.4
2017-Mar-12 00:27N 39°46' W 073°40'21010.5
2017-Mar-11 04:30N 36°58' W 076°20'6 5.9
2017-Mar-11 03:33N 36°53' W 076°21'0 0.0
2017-Mar-11 02:32N 36°53' W 076°21'0 0.0
2017-Mar-11 01:29N 36°53' W 076°21'0 0.0
2017-Mar-11 00:29N 36°53' W 076°21'0 0.0
2017-Mar-10 23:32N 36°53' W 076°21'0 0.0
2017-Mar-10 22:32N 36°53' W 076°21'0 0.0
2017-Mar-10 21:32N 36°53' W 076°21'0 0.0
2017-Mar-10 20:32N 36°53' W 076°21'0 0.0
2017-Mar-10 19:32N 36°53' W 076°21'0 0.0
2017-Mar-10 18:32N 36°53' W 076°21'0 0.0
2017-Mar-10 17:32N 36°53' W 076°21'0 0.0
2017-Mar-10 16:33N 36°53' W 076°21'5 4.7
2017-Mar-10 15:33N 36°57' W 076°20'1212.2
2017-Mar-10 14:33N 36°58' W 076°05'1010.0
2017-Mar-10 13:33N 36°54' W 075°53'6 5.8
2017-Mar-10 12:33N 36°51' W 075°48'  

Dump ship's entire track history